Date,TemperatureHighF,TemperatureAvgF,TemperatureLowF,DewpointHighF,DewpointAvgF,DewpointLowF,HumidityHigh,HumidityAvg,HumidityLow,PressureMaxIn,PressureMinIn,WindSpeedMaxMPH,WindSpeedAvgMPH,GustSpeedMaxMPH,PrecipitationSumIn
2013-11-1,42,28,18,-100,-100,-100,0,0,100,0.00,40.00,0,-999,0,0.00
2013-11-2,49,37,29,-100,-100,-100,0,0,100,0.00,40.00,0,-999,0,0.00
2013-11-3,40,25,12,-100,-100,-100,0,0,100,0.00,40.00,0,-999,0,0.00
2013-11-4,30,19,3,-100,-100,-100,0,0,100,0.00,40.00,0,-999,0,0.00
2013-11-5,27,16,5,-100,-100,-100,0,0,100,0.00,40.00,0,-999,0,0.00
2013-11-6,38,27,21,-100,-100,-100,0,0,100,0.00,40.00,0,-999,0,0.00
2013-11-7,40,34,29,-100,-100,-100,0,0,100,0.00,40.00,0,-999,0,0.00
2013-11-8,37,32,26,-100,-100,-100,0,0,100,0.00,40.00,0,-999,0,0.00
2013-11-9,40,31,23,-100,-100,-100,0,0,100,0.00,40.00,0,-999,0,0.00
2013-11-10,47,30,19,-100,-100,-100,0,0,100,0.00,40.00,0,-999,0,0.00
2013-11-11,52,33,21,-100,-100,-100,0,0,100,0.00,40.00,0,-999,0,0.00
2013-11-12,51,27,13,-100,-100,-100,0,0,100,0.00,40.00,0,-999,0,0.00
2013-11-13,40,32,25,-100,-100,-100,0,0,100,0.00,40.00,0,-999,0,0.00
2013-11-14,33,28,18,-100,-100,-100,0,0,100,0.00,40.00,0,-999,0,0.00
2013-11-15,31,23,14,-100,-100,-100,0,0,100,0.00,40.00,0,-999,0,0.00
2013-11-16,28,23,13,-100,-100,-100,0,0,100,0.00,40.00,0,-999,0,0.00
2013-11-17,28,21,12,-100,-100,-100,0,0,100,0.00,40.00,0,-999,0,0.00
2013-11-18,44,31,27,-100,-100,-100,0,0,100,0.00,40.00,0,-999,0,0.00
2013-11-19,38,33,28,-100,-100,-100,0,0,100,0.00,40.00,0,-999,0,0.00
2013-11-20,37,29,13,-100,-100,-100,0,0,100,0.00,40.00,0,-999,0,0.00
2013-11-21,28,10,-5,-100,-100,-100,0,0,100,0.00,40.00,0,-999,0,0.00
2013-11-22,26,7,-19,-100,-100,-100,0,0,100,0.00,40.00,0,-999,0,0.00
2013-11-23,34,14,-12,-100,-100,-100,0,0,100,0.00,40.00,0,-999,0,0.00
2013-11-24,35,17,-6,-100,-100,-100,0,0,100,0.00,40.00,0,-999,0,0.00
2013-11-25,40,21,5,-100,-100,-100,0,0,100,0.00,40.00,0,-999,0,0.00
2013-11-26,42,19,1,-100,-100,-100,0,0,100,0.00,40.00,0,-999,0,0.00
2013-11-27,45,22,4,-100,-100,-100,0,0,100,0.00,40.00,0,-999,0,0.00
2013-11-28,39,25,5,-100,-100,-100,0,0,100,0.00,40.00,0,-999,0,0.00
2013-11-29,44,25,2,-100,-100,-100,0,0,100,0.00,40.00,0,-999,0,0.00
2013-11-30,35,28,19,-100,-100,-100,0,0,100,0.00,40.00,0,-999,0,0.00